createdAt,value
2016-08-24T00:00:50.410Z,0
2016-08-24T00:02:03.398Z,0
2016-08-24T00:03:16.389Z,0
2016-08-24T00:04:29.380Z,0
2016-08-24T00:05:42.364Z,0
2016-08-24T00:06:55.359Z,0
2016-08-24T00:08:08.347Z,0
2016-08-24T00:09:21.331Z,0
2016-08-24T00:10:34.312Z,0
2016-08-24T00:11:47.497Z,0
2016-08-24T00:13:00.476Z,0
2016-08-24T00:14:13.661Z,0
2016-08-24T00:15:26.637Z,0
2016-08-24T00:16:39.614Z,0
2016-08-24T00:17:52.799Z,0
2016-08-24T00:19:05.787Z,0
2016-08-24T00:20:18.775Z,0
2016-08-24T00:21:31.768Z,0
2016-08-24T00:22:44.952Z,0
2016-08-24T00:23:58.144Z,0
2016-08-24T00:25:11.125Z,0
2016-08-24T00:26:24.109Z,0
2016-08-24T00:27:37.091Z,0
2016-08-24T00:28:50.073Z,0
2016-08-24T00:30:03.059Z,0
2016-08-24T00:31:16.045Z,0
2016-08-24T00:32:29.049Z,0
2016-08-24T00:33:42.090Z,0
2016-08-24T00:34:55.086Z,0
2016-08-24T00:36:08.072Z,0
2016-08-24T00:37:21.055Z,0
2016-08-24T00:38:34.240Z,0
2016-08-24T00:39:47.224Z,0
2016-08-24T00:41:00.206Z,0
2016-08-24T00:42:13.188Z,0
2016-08-24T00:43:26.168Z,0
2016-08-24T00:44:39.153Z,0
2016-08-24T00:45:52.154Z,0
2016-08-24T00:47:05.132Z,0
2016-08-24T00:48:18.117Z,0
2016-08-24T00:49:31.108Z,0
2016-08-24T00:50:44.089Z,0
2016-08-24T00:51:57.076Z,0
2016-08-24T00:53:10.059Z,0
2016-08-24T00:54:23.040Z,0
2016-08-24T00:55:36.220Z,0
2016-08-24T00:56:49.217Z,0
2016-08-24T00:58:02.201Z,0
2016-08-24T00:59:15.601Z,0
2016-08-24T01:00:28.578Z,0
2016-08-24T01:01:41.556Z,0
2016-08-24T01:02:54.545Z,0
2016-08-24T01:04:07.524Z,0
2016-08-24T01:05:20.501Z,0
2016-08-24T01:06:33.482Z,0
2016-08-24T01:07:46.474Z,0
2016-08-24T01:08:59.458Z,0
2016-08-24T01:10:12.439Z,0
2016-08-24T01:11:25.433Z,0
2016-08-24T01:12:38.423Z,0
2016-08-24T01:13:51.412Z,0
2016-08-24T01:15:04.415Z,0
2016-08-24T01:16:17.591Z,0
2016-08-24T01:17:30.774Z,0
2016-08-24T01:18:43.964Z,0
2016-08-24T01:19:56.953Z,0
2016-08-24T01:21:10.145Z,0
2016-08-24T01:22:23.333Z,0
2016-08-24T01:23:36.317Z,0
2016-08-24T01:24:49.507Z,0
2016-08-24T01:26:02.493Z,0
2016-08-24T01:27:15.477Z,0
2016-08-24T01:28:28.462Z,0
2016-08-24T01:29:41.439Z,0
2016-08-24T01:30:54.628Z,0
2016-08-24T01:32:07.620Z,0
2016-08-24T01:33:20.599Z,0
2016-08-24T01:34:33.653Z,0
2016-08-24T01:35:46.636Z,0
2016-08-24T01:36:59.620Z,0
2016-08-24T01:38:12.601Z,0
2016-08-24T01:39:25.574Z,0
2016-08-24T01:40:38.780Z,0
2016-08-24T01:41:51.771Z,0
2016-08-24T01:43:04.748Z,0
2016-08-24T01:44:17.727Z,0
2016-08-24T01:45:30.909Z,0
2016-08-24T01:46:43.896Z,0
2016-08-24T01:47:56.879Z,0
2016-08-24T01:49:09.857Z,0
2016-08-24T01:50:22.837Z,0
2016-08-24T01:51:36.212Z,0
2016-08-24T01:52:49.408Z,0
2016-08-24T01:54:02.396Z,0
2016-08-24T01:55:15.392Z,0
2016-08-24T01:56:28.582Z,0
2016-08-24T01:57:41.564Z,0
2016-08-24T01:58:54.573Z,0
2016-08-24T02:00:07.561Z,0
2016-08-24T02:01:20.737Z,0
2016-08-24T02:02:33.727Z,0
2016-08-24T02:03:46.714Z,0
2016-08-24T02:04:59.903Z,0
2016-08-24T02:06:12.892Z,0
2016-08-24T02:07:25.875Z,0
2016-08-24T02:08:38.853Z,0
2016-08-24T02:09:52.038Z,0
2016-08-24T02:11:05.022Z,0
2016-08-24T02:12:18.208Z,0
2016-08-24T02:13:31.182Z,0
2016-08-24T02:14:44.363Z,0
2016-08-24T02:15:57.547Z,0
2016-08-24T02:17:10.527Z,0
2016-08-24T02:18:23.708Z,0
2016-08-24T02:19:36.696Z,0
2016-08-24T02:20:49.671Z,0
2016-08-24T02:22:02.663Z,0
2016-08-24T02:23:15.651Z,0
2016-08-24T02:24:28.830Z,0
2016-08-24T02:25:41.811Z,0
2016-08-24T02:26:54.809Z,0
2016-08-24T02:28:07.806Z,0
2016-08-24T02:29:20.795Z,0
2016-08-24T02:30:33.769Z,0
2016-08-24T02:31:46.752Z,0
2016-08-24T02:32:59.745Z,0
2016-08-24T02:34:12.732Z,0
2016-08-24T02:35:25.762Z,0
2016-08-24T02:36:38.745Z,0
2016-08-24T02:37:51.727Z,0
2016-08-24T02:39:04.906Z,0
2016-08-24T02:40:17.889Z,0
2016-08-24T02:41:31.069Z,0
2016-08-24T02:42:44.042Z,0
2016-08-24T02:43:57.032Z,0
2016-08-24T02:45:10.025Z,0
2016-08-24T02:46:23.007Z,0
2016-08-24T02:47:35.996Z,0
2016-08-24T02:48:49.184Z,0
2016-08-24T02:50:02.175Z,0
2016-08-24T02:51:15.166Z,0
2016-08-24T02:52:28.156Z,0
2016-08-24T02:53:41.131Z,0
2016-08-24T02:54:54.110Z,0
2016-08-24T02:56:07.095Z,0
2016-08-24T02:57:20.300Z,0
2016-08-24T02:58:33.288Z,0
2016-08-24T02:59:46.267Z,0
2016-08-24T03:00:59.245Z,0
2016-08-24T03:02:12.228Z,0
2016-08-24T03:03:25.207Z,0
2016-08-24T03:04:38.386Z,0
2016-08-24T03:05:51.365Z,0
2016-08-24T03:07:04.344Z,0
2016-08-24T03:08:17.533Z,0
2016-08-24T03:09:30.526Z,0
2016-08-24T03:10:43.503Z,0
2016-08-24T03:11:56.489Z,0
2016-08-24T03:13:09.476Z,0
2016-08-24T03:14:22.458Z,0
2016-08-24T03:15:35.445Z,0
2016-08-24T03:16:48.422Z,0
2016-08-24T03:18:01.407Z,0
2016-08-24T03:19:14.396Z,0
2016-08-24T03:20:27.376Z,0
2016-08-24T03:21:40.355Z,0
2016-08-24T03:22:53.749Z,0
2016-08-24T03:24:06.731Z,0
2016-08-24T03:25:19.716Z,0
2016-08-24T03:26:32.698Z,0
2016-08-24T03:27:45.681Z,0
2016-08-24T03:28:58.679Z,0
2016-08-24T03:30:11.675Z,0
2016-08-24T03:31:24.657Z,0
2016-08-24T03:32:37.636Z,0
2016-08-24T03:33:50.622Z,0
2016-08-24T03:35:03.599Z,0
2016-08-24T03:36:16.632Z,0
2016-08-24T03:37:29.608Z,0
2016-08-24T03:38:42.588Z,0
2016-08-24T03:39:55.583Z,0
2016-08-24T03:41:08.569Z,0
2016-08-24T03:42:21.551Z,0
2016-08-24T03:43:34.540Z,0
2016-08-24T03:44:47.514Z,0
2016-08-24T03:46:00.494Z,0
2016-08-24T03:47:13.491Z,0
2016-08-24T03:48:26.475Z,0
2016-08-24T03:49:39.454Z,0
2016-08-24T03:50:52.451Z,0
2016-08-24T03:52:05.425Z,0
2016-08-24T03:53:18.422Z,0
2016-08-24T03:54:31.417Z,0
2016-08-24T03:55:44.403Z,0
2016-08-24T03:56:57.392Z,0
2016-08-24T03:58:10.376Z,0
2016-08-24T03:59:23.553Z,0
2016-08-24T04:00:36.538Z,0
2016-08-24T04:01:49.522Z,0
2016-08-24T04:03:02.509Z,0
2016-08-24T04:04:15.491Z,0
2016-08-24T04:05:28.467Z,0
2016-08-24T04:06:41.458Z,0
2016-08-24T04:07:54.437Z,0
2016-08-24T04:09:07.437Z,0
2016-08-24T04:10:20.421Z,0
2016-08-24T04:11:33.602Z,0
2016-08-24T04:12:46.583Z,0
2016-08-24T04:13:59.571Z,0
2016-08-24T04:15:12.549Z,0
2016-08-24T04:16:25.543Z,0
2016-08-24T04:17:38.521Z,0
2016-08-24T04:18:51.499Z,0
2016-08-24T04:20:04.483Z,0
2016-08-24T04:21:17.671Z,0
2016-08-24T04:22:30.661Z,5
2016-08-24T04:23:43.645Z,5
2016-08-24T04:24:56.627Z,5
2016-08-24T04:26:09.813Z,5
2016-08-24T04:27:22.805Z,5
2016-08-24T04:28:35.994Z,5
2016-08-24T04:29:48.981Z,5
2016-08-24T04:31:02.168Z,10
2016-08-24T04:32:15.156Z,10
2016-08-24T04:33:28.138Z,10
2016-08-24T04:34:41.123Z,10
2016-08-24T04:35:54.103Z,10
2016-08-24T04:37:07.133Z,15
2016-08-24T04:38:20.508Z,15
2016-08-24T04:39:33.486Z,15
2016-08-24T04:40:46.463Z,15
2016-08-24T04:41:59.444Z,20
2016-08-24T04:43:12.437Z,20
2016-08-24T04:44:25.624Z,20
2016-08-24T04:45:38.619Z,20
2016-08-24T04:46:51.810Z,25
2016-08-24T04:48:04.793Z,25
2016-08-24T04:49:17.797Z,25
2016-08-24T04:50:30.775Z,25
2016-08-24T04:51:43.756Z,30
2016-08-24T04:52:56.734Z,35
2016-08-24T04:54:09.708Z,30
2016-08-24T04:55:22.682Z,35
2016-08-24T04:56:35.862Z,35
2016-08-24T04:57:48.855Z,40
2016-08-24T04:59:01.841Z,40
2016-08-24T05:00:14.827Z,40
2016-08-24T05:01:28.013Z,45
2016-08-24T05:02:40.992Z,50
2016-08-24T05:03:53.972Z,50
2016-08-24T05:05:07.158Z,50
2016-08-24T05:06:20.135Z,50
2016-08-24T05:07:33.121Z,50
2016-08-24T05:08:46.302Z,55
2016-08-24T05:09:59.282Z,55
2016-08-24T05:11:12.255Z,55
2016-08-24T05:12:25.243Z,55
2016-08-24T05:13:38.251Z,55
2016-08-24T05:14:51.231Z,60
2016-08-24T05:16:04.231Z,60
2016-08-24T05:17:17.421Z,60
2016-08-24T05:18:30.428Z,60
2016-08-24T05:19:43.415Z,60
2016-08-24T05:20:56.605Z,60
2016-08-24T05:22:09.593Z,60
2016-08-24T05:23:22.583Z,65
2016-08-24T05:24:35.558Z,65
2016-08-24T05:25:48.541Z,65
2016-08-24T05:27:01.728Z,75
2016-08-24T05:28:14.715Z,75
2016-08-24T05:29:27.703Z,70
2016-08-24T05:30:40.682Z,70
2016-08-24T05:31:53.867Z,70
2016-08-24T05:33:07.036Z,75
2016-08-24T05:34:20.018Z,75
2016-08-24T05:35:33.192Z,75
2016-08-24T05:36:46.173Z,75
2016-08-24T05:37:59.214Z,75
2016-08-24T05:39:12.194Z,80
2016-08-24T05:40:25.380Z,80
2016-08-24T05:41:38.357Z,80
2016-08-24T05:42:51.335Z,80
2016-08-24T05:44:04.321Z,80
2016-08-24T05:45:17.308Z,85
2016-08-24T05:46:30.290Z,85
2016-08-24T05:47:43.271Z,85
2016-08-24T05:48:56.256Z,85
2016-08-24T05:50:09.235Z,90
2016-08-24T05:51:22.211Z,90
2016-08-24T05:52:35.199Z,90
2016-08-24T05:53:48.193Z,90
2016-08-24T05:55:01.164Z,90
2016-08-24T05:56:14.137Z,95
2016-08-24T05:57:27.129Z,95
2016-08-24T05:58:40.112Z,95
2016-08-24T05:59:53.090Z,95
2016-08-24T06:01:06.082Z,95
2016-08-24T06:02:19.084Z,95
2016-08-24T06:03:32.071Z,100
2016-08-24T06:04:45.052Z,100
2016-08-24T06:05:58.031Z,100
2016-08-24T06:07:11.247Z,100
2016-08-24T06:08:24.227Z,105
2016-08-24T06:09:41.243Z,110
2016-08-24T06:10:56.768Z,105
2016-08-24T06:12:09.886Z,105
2016-08-24T06:13:22.872Z,110
2016-08-24T06:14:35.883Z,125
2016-08-24T06:15:48.867Z,115
2016-08-24T06:17:01.856Z,115
2016-08-24T06:18:14.841Z,115
2016-08-24T06:19:28.251Z,115
2016-08-24T06:20:41.902Z,115
2016-08-24T06:21:55.100Z,115
2016-08-24T06:23:08.154Z,120
2016-08-24T06:24:21.823Z,130
2016-08-24T06:25:35.756Z,125
2016-08-24T06:26:48.932Z,125
2016-08-24T06:28:02.872Z,125
2016-08-24T06:29:16.174Z,125
2016-08-24T06:30:29.161Z,125
2016-08-24T06:31:42.143Z,150
2016-08-24T06:32:55.138Z,135
2016-08-24T06:34:09.460Z,150
2016-08-24T06:35:22.844Z,145
2016-08-24T06:36:35.936Z,150
2016-08-24T06:37:49.012Z,380
2016-08-24T06:39:01.996Z,760
2016-08-24T06:40:14.985Z,1380
2016-08-24T06:41:29.684Z,1520
2016-08-24T06:42:42.667Z,1645
2016-08-24T06:43:55.675Z,1650
2016-08-24T06:45:08.668Z,1650
2016-08-24T06:46:21.652Z,1600
2016-08-24T06:47:37.709Z,1670
2016-08-24T06:48:50.709Z,1605
2016-08-24T06:50:03.728Z,1645
2016-08-24T06:51:16.933Z,1550
2016-08-24T06:52:29.956Z,1680
2016-08-24T06:53:42.945Z,1770
2016-08-24T06:54:56.139Z,1740
2016-08-24T06:56:09.204Z,1745
2016-08-24T06:57:22.428Z,1740
2016-08-24T06:58:35.422Z,1785
2016-08-24T06:59:48.461Z,1805
2016-08-24T07:01:01.505Z,1785
2016-08-24T07:02:14.507Z,1770
2016-08-24T07:03:27.608Z,1795
2016-08-24T07:04:40.716Z,1755
2016-08-24T07:05:53.940Z,1680
2016-08-24T07:07:06.939Z,1755
2016-08-24T07:08:21.745Z,1940
2016-08-24T07:09:35.018Z,1920
2016-08-24T07:10:48.025Z,1960
2016-08-24T07:12:01.024Z,1885
2016-08-24T07:13:14.026Z,1880
2016-08-24T07:14:27.040Z,1960
2016-08-24T07:15:40.260Z,1905
2016-08-24T07:16:53.467Z,1865
2016-08-24T07:18:06.466Z,1935
2016-08-24T07:19:19.481Z,1885
2016-08-24T07:20:32.489Z,1870
2016-08-24T07:21:45.684Z,1975
2016-08-24T07:22:58.687Z,2075
2016-08-24T07:24:11.708Z,2040
2016-08-24T07:25:24.709Z,1945
2016-08-24T07:26:37.721Z,1955
2016-08-24T07:27:50.724Z,1955
2016-08-24T07:29:03.719Z,1925
2016-08-24T07:30:16.722Z,1915
2016-08-24T07:31:29.722Z,1985
2016-08-24T07:32:42.720Z,1960
2016-08-24T07:33:55.732Z,2210
2016-08-24T07:35:08.730Z,2130
2016-08-24T07:36:21.745Z,1985
2016-08-24T07:37:34.747Z,2090
2016-08-24T07:38:47.805Z,2030
2016-08-24T07:40:00.819Z,1970
2016-08-24T07:41:13.824Z,1905
2016-08-24T07:42:26.833Z,1905
2016-08-24T07:43:39.843Z,2080
2016-08-24T07:44:52.857Z,2130
2016-08-24T07:46:05.858Z,2005
2016-08-24T07:47:18.871Z,2005
2016-08-24T07:48:31.870Z,2060
2016-08-24T07:49:44.867Z,2025
2016-08-24T07:50:57.882Z,2200
2016-08-24T07:52:10.882Z,2250
2016-08-24T07:53:23.886Z,2070
2016-08-24T07:54:36.875Z,1995
2016-08-24T07:55:49.880Z,2070
2016-08-24T07:57:02.881Z,2120
2016-08-24T07:58:15.878Z,2080
2016-08-24T07:59:28.892Z,2105
2016-08-24T08:00:41.899Z,2045
2016-08-24T08:01:55.113Z,2150
2016-08-24T08:03:08.322Z,2100
2016-08-24T08:04:21.327Z,2055
2016-08-24T08:05:34.334Z,2140
2016-08-24T08:06:47.347Z,2005
2016-08-24T08:08:00.351Z,2075
2016-08-24T08:09:13.561Z,2150
2016-08-24T08:10:26.563Z,2155
2016-08-24T08:11:39.570Z,2095
2016-08-24T08:12:52.769Z,2205
2016-08-24T08:14:05.976Z,2135
2016-08-24T08:15:18.984Z,2220
2016-08-24T08:16:31.982Z,2040
2016-08-24T08:17:44.994Z,2185
2016-08-24T08:18:58.001Z,2100
2016-08-24T08:20:11.000Z,2135
2016-08-24T08:21:24.207Z,2130
2016-08-24T08:22:37.218Z,2200
2016-08-24T08:23:50.225Z,2070
2016-08-24T08:25:03.431Z,2015
2016-08-24T08:26:16.439Z,2050
2016-08-24T08:27:29.645Z,2245
2016-08-24T08:28:42.681Z,2235
2016-08-24T08:29:55.697Z,2225
2016-08-24T08:31:08.903Z,2195
2016-08-24T08:32:21.904Z,2160
2016-08-24T08:33:34.906Z,2165
2016-08-24T08:34:48.129Z,2145
2016-08-24T08:36:01.138Z,2060
2016-08-24T08:37:14.147Z,2175
2016-08-24T08:38:27.149Z,2060
2016-08-24T08:39:40.401Z,2050
2016-08-24T08:40:53.412Z,2065
2016-08-24T08:42:06.416Z,2055
2016-08-24T08:43:19.427Z,2130
2016-08-24T08:44:32.434Z,2130
2016-08-24T08:45:45.428Z,2090
2016-08-24T08:46:58.426Z,2070
2016-08-24T08:48:11.437Z,2115
2016-08-24T08:49:24.660Z,2055
2016-08-24T08:50:37.677Z,2185
2016-08-24T08:51:50.887Z,2220
2016-08-24T08:53:03.893Z,2200
2016-08-24T08:54:16.917Z,2270
2016-08-24T08:55:30.130Z,2255
2016-08-24T08:56:43.137Z,2245
2016-08-24T08:57:56.584Z,2150
2016-08-24T08:59:09.593Z,1970
2016-08-24T09:00:22.608Z,2030
2016-08-24T09:01:35.618Z,2155
2016-08-24T09:02:48.630Z,2120
2016-08-24T09:04:01.659Z,2110
2016-08-24T09:05:14.662Z,2165
2016-08-24T09:06:27.873Z,2165
2016-08-24T09:07:40.885Z,2105
2016-08-24T09:08:54.113Z,2060
2016-08-24T09:10:07.123Z,2035
2016-08-24T09:11:20.123Z,1950
2016-08-24T09:12:33.121Z,1870
2016-08-24T09:13:46.332Z,2090
2016-08-24T09:14:59.357Z,2030
2016-08-24T09:16:12.374Z,2300
2016-08-24T09:17:25.404Z,2365
2016-08-24T09:18:38.614Z,2230
2016-08-24T09:19:52.027Z,2150
2016-08-24T09:21:05.238Z,2145
2016-08-24T09:22:18.245Z,1980
2016-08-24T09:23:31.256Z,2080
2016-08-24T09:24:44.263Z,1965
2016-08-24T09:25:57.275Z,1885
2016-08-24T09:27:10.290Z,1965
2016-08-24T09:28:23.310Z,2025
2016-08-24T09:29:36.522Z,2010
2016-08-24T09:30:49.525Z,1970
2016-08-24T09:32:02.530Z,2015
2016-08-24T09:33:15.571Z,1950
2016-08-24T09:34:28.772Z,1865
2016-08-24T09:35:41.986Z,1950
2016-08-24T09:36:55.001Z,2045
2016-08-24T09:38:07.997Z,2035
2016-08-24T09:39:20.999Z,2080
2016-08-24T09:40:34.465Z,2015
2016-08-24T09:41:47.471Z,2030
2016-08-24T09:43:00.482Z,1950
2016-08-24T09:44:13.686Z,2005
2016-08-24T09:45:26.701Z,1995
2016-08-24T09:46:39.709Z,2040
2016-08-24T09:47:52.751Z,1890
2016-08-24T09:49:05.753Z,2040
2016-08-24T09:50:18.961Z,2115
2016-08-24T09:51:31.964Z,2165
2016-08-24T09:52:44.979Z,2080
2016-08-24T09:53:58.190Z,1925
2016-08-24T09:55:11.210Z,1860
2016-08-24T09:56:24.219Z,1955
2016-08-24T09:57:37.234Z,1950
2016-08-24T09:58:50.245Z,1900
2016-08-24T10:00:03.254Z,1865
2016-08-24T10:01:16.261Z,1855
2016-08-24T10:02:29.267Z,1925
2016-08-24T10:03:42.275Z,1910
2016-08-24T10:04:55.287Z,1850
2016-08-24T10:06:08.294Z,1845
2016-08-24T10:07:21.304Z,1865
2016-08-24T10:08:34.320Z,1985
2016-08-24T10:09:47.329Z,1930
2016-08-24T10:11:00.532Z,1940
2016-08-24T10:12:13.543Z,1850
2016-08-24T10:13:26.751Z,1910
2016-08-24T10:14:39.759Z,1920
2016-08-24T10:15:52.765Z,1950
2016-08-24T10:17:05.776Z,1975
2016-08-24T10:18:18.786Z,1985
2016-08-24T10:19:31.795Z,1935
2016-08-24T10:20:44.804Z,1805
2016-08-24T10:21:57.807Z,1770
2016-08-24T10:23:10.821Z,1720
2016-08-24T10:24:23.837Z,1635
2016-08-24T10:25:36.850Z,1650
2016-08-24T10:26:50.069Z,1655
2016-08-24T10:28:03.294Z,1660
2016-08-24T10:29:16.309Z,1580
2016-08-24T10:30:29.317Z,1725
2016-08-24T10:31:42.334Z,1890
2016-08-24T10:32:55.541Z,1870
2016-08-24T10:34:08.542Z,1805
2016-08-24T10:35:21.538Z,1785
2016-08-24T10:36:34.546Z,1835
2016-08-24T10:37:47.755Z,1905
2016-08-24T10:39:00.768Z,1845
2016-08-24T10:40:13.776Z,1825
2016-08-24T10:41:26.834Z,1895
2016-08-24T10:42:40.055Z,2080
2016-08-24T10:43:53.071Z,2220
2016-08-24T10:45:06.077Z,2520
2016-08-24T10:46:19.083Z,2605
2016-08-24T10:47:32.084Z,2250
2016-08-24T10:48:45.107Z,1715
2016-08-24T10:49:58.126Z,1100
2016-08-24T10:51:11.132Z,795
2016-08-24T10:52:24.145Z,710
2016-08-24T10:53:37.363Z,655
2016-08-24T10:54:50.375Z,655
2016-08-24T10:56:03.577Z,670
2016-08-24T10:57:16.589Z,690
2016-08-24T10:58:29.794Z,695
2016-08-24T10:59:42.800Z,745
2016-08-24T11:00:56.000Z,855
2016-08-24T11:02:09.025Z,950
2016-08-24T11:03:22.024Z,1020
2016-08-24T11:04:35.056Z,1090
2016-08-24T11:05:48.071Z,1175
2016-08-24T11:07:01.088Z,1315
2016-08-24T11:08:14.090Z,1420
2016-08-24T11:09:27.500Z,1465
2016-08-24T11:10:40.705Z,1530
2016-08-24T11:11:53.733Z,1500
2016-08-24T11:13:06.959Z,1470
2016-08-24T11:14:19.970Z,1445
2016-08-24T11:15:32.978Z,1430
2016-08-24T11:16:45.985Z,1290
2016-08-24T11:17:59.005Z,1300
2016-08-24T11:19:12.018Z,1430
2016-08-24T11:20:25.031Z,1425
2016-08-24T11:21:38.037Z,1495
2016-08-24T11:22:51.037Z,1450
2016-08-24T11:24:04.043Z,1475
2016-08-24T11:25:17.038Z,1440
2016-08-24T11:26:30.055Z,1520
2016-08-24T11:27:43.061Z,1490
2016-08-24T11:28:56.066Z,1460
2016-08-24T11:30:09.066Z,1480
2016-08-24T11:31:22.068Z,1395
2016-08-24T11:32:35.085Z,1415
2016-08-24T11:33:48.085Z,1465
2016-08-24T11:35:01.298Z,1450
2016-08-24T11:36:14.296Z,1450
2016-08-24T11:37:27.298Z,1415
2016-08-24T11:38:40.306Z,1395
2016-08-24T11:39:53.315Z,1350
2016-08-24T11:41:06.359Z,1390
2016-08-24T11:42:19.609Z,1375
2016-08-24T11:43:32.831Z,1345
2016-08-24T11:44:45.833Z,1400
2016-08-24T11:45:58.840Z,1380
2016-08-24T11:47:12.057Z,1335
2016-08-24T11:48:25.067Z,1320
2016-08-24T11:49:38.080Z,1295
2016-08-24T11:50:51.099Z,1320
2016-08-24T11:52:04.099Z,1330
2016-08-24T11:53:17.113Z,1260
2016-08-24T11:54:30.140Z,1275
2016-08-24T11:55:43.143Z,1320
2016-08-24T11:56:56.155Z,1295
2016-08-24T11:58:09.162Z,1240
2016-08-24T11:59:22.172Z,1200
2016-08-24T12:00:35.176Z,1235
2016-08-24T12:01:48.391Z,1270
2016-08-24T12:03:01.392Z,1290
2016-08-24T12:04:14.798Z,1245
2016-08-24T12:05:27.797Z,1205
2016-08-24T12:06:40.817Z,1215
2016-08-24T12:07:53.815Z,1180
2016-08-24T12:09:06.826Z,1160
2016-08-24T12:10:19.844Z,1165
2016-08-24T12:11:32.852Z,1165
2016-08-24T12:12:45.875Z,1160
2016-08-24T12:13:58.874Z,1120
2016-08-24T12:15:11.879Z,1090
2016-08-24T12:16:25.085Z,1055
2016-08-24T12:17:38.084Z,1045
2016-08-24T12:18:51.084Z,1035
2016-08-24T12:20:04.099Z,1050
2016-08-24T12:21:17.104Z,1010
2016-08-24T12:22:30.102Z,1015
2016-08-24T12:23:43.311Z,990
2016-08-24T12:24:56.310Z,980
2016-08-24T12:26:09.537Z,945
2016-08-24T12:27:22.536Z,930
2016-08-24T12:28:35.531Z,940
2016-08-24T12:29:48.540Z,895
2016-08-24T12:31:01.541Z,890
2016-08-24T12:32:14.534Z,830
2016-08-24T12:33:27.555Z,850
2016-08-24T12:34:40.569Z,865
2016-08-24T12:35:53.572Z,845
2016-08-24T12:37:06.785Z,815
2016-08-24T12:38:19.797Z,805
2016-08-24T12:39:32.800Z,805
2016-08-24T12:40:46.005Z,795
2016-08-24T12:41:59.022Z,775
2016-08-24T12:43:12.075Z,775
2016-08-24T12:44:25.086Z,765
2016-08-24T12:45:38.291Z,745
2016-08-24T12:46:51.290Z,730
2016-08-24T12:48:04.295Z,715
2016-08-24T12:49:17.298Z,705
2016-08-24T12:50:30.306Z,695
2016-08-24T12:51:43.319Z,675
2016-08-24T12:52:56.325Z,655
2016-08-24T12:54:09.524Z,640
2016-08-24T12:55:22.515Z,620
2016-08-24T12:56:35.727Z,610
2016-08-24T12:57:48.725Z,600
2016-08-24T12:59:01.727Z,580
2016-08-24T13:00:14.730Z,570
2016-08-24T13:01:27.744Z,560
2016-08-24T13:02:40.748Z,550
2016-08-24T13:03:53.959Z,535
2016-08-24T13:05:06.955Z,530
2016-08-24T13:06:19.955Z,540
2016-08-24T13:07:32.956Z,515
2016-08-24T13:08:45.959Z,495
2016-08-24T13:09:58.956Z,490
2016-08-24T13:11:11.959Z,485
2016-08-24T13:12:24.958Z,475
2016-08-24T13:13:37.967Z,455
2016-08-24T13:14:50.968Z,445
2016-08-24T13:16:03.965Z,390
2016-08-24T13:17:16.964Z,340
2016-08-24T13:18:29.972Z,315
2016-08-24T13:19:42.972Z,220
2016-08-24T13:20:55.964Z,245
2016-08-24T13:22:08.962Z,265
2016-08-24T13:23:22.166Z,285
2016-08-24T13:24:35.156Z,310
2016-08-24T13:25:48.161Z,305
2016-08-24T13:27:01.163Z,260
2016-08-24T13:28:14.174Z,255
2016-08-24T13:29:27.173Z,275
2016-08-24T13:30:40.375Z,295
2016-08-24T13:31:53.376Z,290
2016-08-24T13:33:06.367Z,280
2016-08-24T13:34:19.575Z,270
2016-08-24T13:35:32.580Z,260
2016-08-24T13:36:45.997Z,250
2016-08-24T13:37:59.196Z,245
2016-08-24T13:39:12.199Z,240
2016-08-24T13:40:25.205Z,235
2016-08-24T13:41:38.607Z,240
2016-08-24T13:42:51.613Z,270
2016-08-24T13:44:04.670Z,305
2016-08-24T13:45:17.669Z,280
2016-08-24T13:46:30.669Z,265
2016-08-24T13:47:43.671Z,255
2016-08-24T13:48:56.670Z,245
2016-08-24T13:50:09.666Z,245
2016-08-24T13:51:22.667Z,240
2016-08-24T13:52:35.664Z,240
2016-08-24T13:53:48.667Z,230
2016-08-24T13:55:01.669Z,220
2016-08-24T13:56:14.866Z,220
2016-08-24T13:57:27.874Z,220
2016-08-24T13:58:41.077Z,220
2016-08-24T13:59:54.507Z,215
2016-08-24T14:01:07.497Z,210
2016-08-24T14:02:20.490Z,210
2016-08-24T14:03:33.502Z,210
2016-08-24T14:04:46.507Z,210
2016-08-24T14:05:59.518Z,210
2016-08-24T14:07:12.518Z,210
2016-08-24T14:08:25.513Z,210
2016-08-24T14:09:38.510Z,205
2016-08-24T14:10:51.513Z,205
2016-08-24T14:12:04.515Z,205
2016-08-24T14:13:17.525Z,205
2016-08-24T14:14:30.522Z,195
2016-08-24T14:15:43.712Z,185
2016-08-24T14:16:56.696Z,175
2016-08-24T14:18:09.896Z,175
2016-08-24T14:19:22.899Z,175
2016-08-24T14:20:35.906Z,175
2016-08-24T14:21:48.913Z,175
2016-08-24T14:23:01.951Z,180
2016-08-24T14:24:14.945Z,170
2016-08-24T14:25:28.149Z,175
2016-08-24T14:26:41.150Z,180
2016-08-24T14:27:54.154Z,185
2016-08-24T14:29:07.356Z,240
2016-08-24T14:30:20.348Z,360
2016-08-24T14:31:33.546Z,320
2016-08-24T14:32:46.538Z,310
2016-08-24T14:33:59.741Z,310
2016-08-24T14:35:12.735Z,340
2016-08-24T14:36:25.727Z,340
2016-08-24T14:37:38.911Z,300
2016-08-24T14:38:51.908Z,195
2016-08-24T14:40:04.904Z,155
2016-08-24T14:41:17.916Z,140
2016-08-24T14:42:30.907Z,135
2016-08-24T14:43:43.899Z,135
2016-08-24T14:44:56.960Z,135
2016-08-24T14:46:09.953Z,135
2016-08-24T14:47:22.947Z,135
2016-08-24T14:48:36.146Z,135
2016-08-24T14:49:49.142Z,135
2016-08-24T14:51:02.134Z,130
2016-08-24T14:52:15.136Z,130
2016-08-24T14:53:28.130Z,130
2016-08-24T14:54:41.134Z,125
2016-08-24T14:55:54.136Z,125
2016-08-24T14:57:07.144Z,125
2016-08-24T14:58:20.141Z,120
2016-08-24T14:59:33.140Z,120
2016-08-24T15:00:46.128Z,120
2016-08-24T15:01:59.118Z,120
2016-08-24T15:03:12.121Z,120
2016-08-24T15:04:25.123Z,120
2016-08-24T15:05:38.117Z,120
2016-08-24T15:06:51.119Z,115
2016-08-24T15:08:04.112Z,115
2016-08-24T15:09:17.107Z,115
2016-08-24T15:10:30.307Z,115
2016-08-24T15:11:43.322Z,115
2016-08-24T15:12:56.317Z,110
2016-08-24T15:14:09.720Z,110
2016-08-24T15:15:22.909Z,110
2016-08-24T15:16:35.900Z,110
2016-08-24T15:17:49.096Z,110
2016-08-24T15:19:02.093Z,110
2016-08-24T15:20:15.089Z,105
2016-08-24T15:21:28.092Z,110
2016-08-24T15:22:41.095Z,110
2016-08-24T15:23:54.296Z,110
2016-08-24T15:25:07.300Z,110
2016-08-24T15:26:20.303Z,110
2016-08-24T15:27:33.286Z,110
2016-08-24T15:28:46.497Z,110
2016-08-24T15:29:59.698Z,110
2016-08-24T15:31:12.703Z,105
2016-08-24T15:32:25.709Z,105
2016-08-24T15:33:38.709Z,105
2016-08-24T15:34:51.723Z,105
2016-08-24T15:36:04.912Z,105
2016-08-24T15:37:17.917Z,105
2016-08-24T15:38:30.914Z,105
2016-08-24T15:39:43.908Z,105
2016-08-24T15:40:56.899Z,105
2016-08-24T15:42:09.897Z,105
2016-08-24T15:43:23.098Z,105
2016-08-24T15:44:36.091Z,105
2016-08-24T15:45:49.132Z,105
2016-08-24T15:47:02.135Z,105
2016-08-24T15:48:15.143Z,105
2016-08-24T15:49:28.363Z,105
2016-08-24T15:50:41.371Z,105
2016-08-24T15:51:54.368Z,105
2016-08-24T15:53:07.384Z,105
2016-08-24T15:54:20.381Z,110
2016-08-24T15:55:33.381Z,105
2016-08-24T15:56:46.389Z,105
2016-08-24T15:57:59.636Z,105
2016-08-24T15:59:12.629Z,105
2016-08-24T16:00:25.627Z,105
2016-08-24T16:01:38.658Z,105
2016-08-24T16:02:51.665Z,100
2016-08-24T16:04:04.658Z,100
2016-08-24T16:05:17.655Z,100
2016-08-24T16:06:30.662Z,100
2016-08-24T16:07:43.663Z,100
2016-08-24T16:08:56.660Z,100
2016-08-24T16:10:09.656Z,100
2016-08-24T16:11:22.670Z,100
2016-08-24T16:12:35.665Z,100
2016-08-24T16:13:48.675Z,100
2016-08-24T16:15:01.669Z,100
2016-08-24T16:16:14.663Z,100
2016-08-24T16:17:27.662Z,100
2016-08-24T16:18:40.655Z,100
2016-08-24T16:19:53.662Z,100
2016-08-24T16:21:06.650Z,95
2016-08-24T16:22:19.645Z,95
2016-08-24T16:23:32.638Z,95
2016-08-24T16:24:46.029Z,95
2016-08-24T16:25:59.237Z,95
2016-08-24T16:27:12.244Z,95
2016-08-24T16:28:25.242Z,95
2016-08-24T16:29:38.242Z,95
2016-08-24T16:30:51.227Z,95
2016-08-24T16:32:04.220Z,95
2016-08-24T16:33:17.210Z,95
2016-08-24T16:34:30.218Z,95
2016-08-24T16:35:44.419Z,95
2016-08-24T16:36:57.419Z,95
2016-08-24T16:38:10.405Z,90
2016-08-24T16:39:23.595Z,90
2016-08-24T16:40:36.596Z,85
2016-08-24T16:41:49.595Z,85
2016-08-24T16:43:02.798Z,85
2016-08-24T16:44:15.994Z,85
2016-08-24T16:45:29.193Z,80
2016-08-24T16:46:42.367Z,80
2016-08-24T16:47:55.598Z,75
2016-08-24T16:49:08.613Z,75
2016-08-24T16:50:23.433Z,75
2016-08-24T16:51:39.332Z,75
2016-08-24T16:52:55.124Z,70
2016-08-24T16:54:08.385Z,70
2016-08-24T16:55:21.595Z,75
2016-08-24T16:56:34.816Z,75
2016-08-24T16:57:47.808Z,75